sensor_id;sensor_type;location;lat;lon;timestamp;P1;durP1;ratioP1;P2;durP2;ratioP2
77105;SDS011;66057;54.718;18.426;2023-03-14T00:01:08;7.63;;;3.42;;
77105;SDS011;66057;54.718;18.426;2023-03-14T00:03:36;5.55;;;2.67;;
77105;SDS011;66057;54.718;18.426;2023-03-14T00:06:02;4.38;;;2.53;;
77105;SDS011;66057;54.718;18.426;2023-03-14T00:08:29;3.92;;;2.72;;
77105;SDS011;66057;54.718;18.426;2023-03-14T00:10:55;4.45;;;3.25;;
77105;SDS011;66057;54.718;18.426;2023-03-14T00:13:23;4.28;;;2.78;;
77105;SDS011;66057;54.718;18.426;2023-03-14T00:18:16;4.45;;;2.95;;
77105;SDS011;66057;54.718;18.426;2023-03-14T00:20:45;4.75;;;3.22;;
77105;SDS011;66057;54.718;18.426;2023-03-14T00:23:11;2.97;;;2.17;;
77105;SDS011;66057;54.718;18.426;2023-03-14T00:25:37;3.05;;;1.92;;
77105;SDS011;66057;54.718;18.426;2023-03-14T00:28:12;6.38;;;2.97;;
77105;SDS011;66057;54.718;18.426;2023-03-14T00:30:38;3.58;;;2.63;;
77105;SDS011;66057;54.718;18.426;2023-03-14T00:33:04;5.05;;;3.30;;
77105;SDS011;66057;54.718;18.426;2023-03-14T00:35:30;3.75;;;1.90;;
77105;SDS011;66057;54.718;18.426;2023-03-14T00:37:56;4.53;;;2.58;;
77105;SDS011;66057;54.718;18.426;2023-03-14T00:40:22;5.57;;;2.30;;
77105;SDS011;66057;54.718;18.426;2023-03-14T00:42:48;4.15;;;3.08;;
77105;SDS011;66057;54.718;18.426;2023-03-14T00:45:14;4.22;;;2.90;;
77105;SDS011;66057;54.718;18.426;2023-03-14T00:47:40;3.00;;;2.45;;
77105;SDS011;66057;54.718;18.426;2023-03-14T00:50:11;5.97;;;3.13;;
77105;SDS011;66057;54.718;18.426;2023-03-14T00:52:37;3.30;;;2.40;;
77105;SDS011;66057;54.718;18.426;2023-03-14T00:55:03;3.95;;;2.20;;
77105;SDS011;66057;54.718;18.426;2023-03-14T00:57:30;5.47;;;2.63;;
77105;SDS011;66057;54.718;18.426;2023-03-14T00:59:55;4.60;;;3.10;;
77105;SDS011;66057;54.718;18.426;2023-03-14T01:02:21;3.55;;;2.03;;
77105;SDS011;66057;54.718;18.426;2023-03-14T01:04:48;3.63;;;2.63;;
77105;SDS011;66057;54.718;18.426;2023-03-14T01:07:15;4.50;;;2.75;;
77105;SDS011;66057;54.718;18.426;2023-03-14T01:09:41;6.28;;;2.63;;
77105;SDS011;66057;54.718;18.426;2023-03-14T01:12:07;4.95;;;2.10;;
77105;SDS011;66057;54.718;18.426;2023-03-14T01:14:33;5.93;;;2.67;;
77105;SDS011;66057;54.718;18.426;2023-03-14T01:16:59;6.55;;;2.42;;
77105;SDS011;66057;54.718;18.426;2023-03-14T01:19:26;8.18;;;3.33;;
77105;SDS011;66057;54.718;18.426;2023-03-14T01:21:53;5.03;;;2.40;;
77105;SDS011;66057;54.718;18.426;2023-03-14T01:24:19;5.30;;;2.95;;
77105;SDS011;66057;54.718;18.426;2023-03-14T01:26:46;6.28;;;3.00;;
77105;SDS011;66057;54.718;18.426;2023-03-14T01:29:21;5.00;;;2.97;;
77105;SDS011;66057;54.718;18.426;2023-03-14T01:31:50;4.63;;;2.50;;
77105;SDS011;66057;54.718;18.426;2023-03-14T01:34:16;6.72;;;2.88;;
77105;SDS011;66057;54.718;18.426;2023-03-14T01:36:42;5.53;;;3.65;;
77105;SDS011;66057;54.718;18.426;2023-03-14T01:39:08;16.42;;;5.68;;
77105;SDS011;66057;54.718;18.426;2023-03-14T01:41:36;7.53;;;4.07;;
77105;SDS011;66057;54.718;18.426;2023-03-14T01:44:02;11.73;;;3.83;;
77105;SDS011;66057;54.718;18.426;2023-03-14T01:46:38;13.60;;;5.10;;
77105;SDS011;66057;54.718;18.426;2023-03-14T01:54:14;11.68;;;4.03;;
77105;SDS011;66057;54.718;18.426;2023-03-14T01:56:58;7.82;;;3.40;;
77105;SDS011;66057;54.718;18.426;2023-03-14T01:59:32;11.48;;;4.05;;
77105;SDS011;66057;54.718;18.426;2023-03-14T02:02:00;6.13;;;3.67;;
77105;SDS011;66057;54.718;18.426;2023-03-14T02:04:27;6.35;;;2.75;;
77105;SDS011;66057;54.718;18.426;2023-03-14T02:09:38;4.72;;;2.67;;
77105;SDS011;66057;54.718;18.426;2023-03-14T02:12:10;5.45;;;3.03;;
77105;SDS011;66057;54.718;18.426;2023-03-14T02:14:41;5.35;;;3.13;;
77105;SDS011;66057;54.718;18.426;2023-03-14T02:17:13;7.10;;;3.13;;
77105;SDS011;66057;54.718;18.426;2023-03-14T02:22:11;4.93;;;2.53;;
77105;SDS011;66057;54.718;18.426;2023-03-14T02:27:16;6.47;;;3.17;;
77105;SDS011;66057;54.718;18.426;2023-03-14T02:32:18;6.40;;;3.38;;
77105;SDS011;66057;54.718;18.426;2023-03-14T02:34:46;4.25;;;2.83;;
77105;SDS011;66057;54.718;18.426;2023-03-14T02:37:17;5.30;;;2.35;;
77105;SDS011;66057;54.718;18.426;2023-03-14T02:39:46;8.40;;;2.97;;
77105;SDS011;66057;54.718;18.426;2023-03-14T02:42:14;5.78;;;2.97;;
77105;SDS011;66057;54.718;18.426;2023-03-14T02:47:27;4.15;;;2.20;;
77105;SDS011;66057;54.718;18.426;2023-03-14T02:49:59;4.35;;;2.38;;
77105;SDS011;66057;54.718;18.426;2023-03-14T02:52:33;5.15;;;2.90;;
77105;SDS011;66057;54.718;18.426;2023-03-14T02:54:59;3.17;;;2.25;;
77105;SDS011;66057;54.718;18.426;2023-03-14T02:57:25;6.68;;;3.20;;
77105;SDS011;66057;54.718;18.426;2023-03-14T02:59:51;3.75;;;2.17;;
77105;SDS011;66057;54.718;18.426;2023-03-14T03:02:17;4.55;;;1.88;;
77105;SDS011;66057;54.718;18.426;2023-03-14T03:04:46;2.65;;;2.17;;
77105;SDS011;66057;54.718;18.426;2023-03-14T03:07:18;4.25;;;2.95;;
77105;SDS011;66057;54.718;18.426;2023-03-14T03:09:45;4.85;;;2.33;;
77105;SDS011;66057;54.718;18.426;2023-03-14T03:12:11;12.00;;;4.45;;
77105;SDS011;66057;54.718;18.426;2023-03-14T03:14:37;5.68;;;2.38;;
77105;SDS011;66057;54.718;18.426;2023-03-14T03:17:04;5.25;;;2.28;;
77105;SDS011;66057;54.718;18.426;2023-03-14T03:19:31;4.22;;;2.63;;
77105;SDS011;66057;54.718;18.426;2023-03-14T03:21:58;5.13;;;2.35;;
77105;SDS011;66057;54.718;18.426;2023-03-14T03:24:29;4.43;;;3.03;;
77105;SDS011;66057;54.718;18.426;2023-03-14T03:26:58;5.97;;;2.80;;
77105;SDS011;66057;54.718;18.426;2023-03-14T03:29:28;7.35;;;3.65;;
77105;SDS011;66057;54.718;18.426;2023-03-14T03:31:54;6.25;;;3.13;;
77105;SDS011;66057;54.718;18.426;2023-03-14T03:34:20;7.25;;;3.08;;
77105;SDS011;66057;54.718;18.426;2023-03-14T03:36:46;4.53;;;3.20;;
77105;SDS011;66057;54.718;18.426;2023-03-14T03:39:14;9.05;;;4.40;;
77105;SDS011;66057;54.718;18.426;2023-03-14T03:41:40;9.73;;;3.92;;
77105;SDS011;66057;54.718;18.426;2023-03-14T03:44:06;5.07;;;3.13;;
77105;SDS011;66057;54.718;18.426;2023-03-14T03:46:32;7.43;;;3.92;;
77105;SDS011;66057;54.718;18.426;2023-03-14T03:48:58;7.43;;;3.55;;
77105;SDS011;66057;54.718;18.426;2023-03-14T03:51:26;7.25;;;2.90;;
77105;SDS011;66057;54.718;18.426;2023-03-14T03:53:52;3.83;;;2.55;;
77105;SDS011;66057;54.718;18.426;2023-03-14T03:56:18;7.05;;;2.75;;
77105;SDS011;66057;54.718;18.426;2023-03-14T03:58:44;5.32;;;3.15;;
77105;SDS011;66057;54.718;18.426;2023-03-14T04:01:10;4.88;;;2.58;;
77105;SDS011;66057;54.718;18.426;2023-03-14T04:03:36;5.80;;;3.03;;
77105;SDS011;66057;54.718;18.426;2023-03-14T04:06:08;8.05;;;3.15;;
77105;SDS011;66057;54.718;18.426;2023-03-14T04:08:36;6.43;;;2.65;;
77105;SDS011;66057;54.718;18.426;2023-03-14T04:11:02;3.92;;;3.05;;
77105;SDS011;66057;54.718;18.426;2023-03-14T04:13:29;7.93;;;4.22;;
77105;SDS011;66057;54.718;18.426;2023-03-14T04:15:55;6.50;;;3.22;;
77105;SDS011;66057;54.718;18.426;2023-03-14T04:18:22;5.05;;;2.78;;
77105;SDS011;66057;54.718;18.426;2023-03-14T04:20:50;4.68;;;2.83;;
77105;SDS011;66057;54.718;18.426;2023-03-14T04:23:17;6.45;;;2.83;;
77105;SDS011;66057;54.718;18.426;2023-03-14T04:25:44;6.72;;;3.75;;
77105;SDS011;66057;54.718;18.426;2023-03-14T04:28:10;6.80;;;4.35;;
77105;SDS011;66057;54.718;18.426;2023-03-14T04:30:36;5.25;;;3.08;;
77105;SDS011;66057;54.718;18.426;2023-03-14T04:33:02;6.95;;;3.55;;
77105;SDS011;66057;54.718;18.426;2023-03-14T04:35:32;5.00;;;2.83;;
77105;SDS011;66057;54.718;18.426;2023-03-14T04:37:58;6.47;;;3.03;;
77105;SDS011;66057;54.718;18.426;2023-03-14T04:40:25;8.13;;;3.75;;
77105;SDS011;66057;54.718;18.426;2023-03-14T04:42:51;5.28;;;2.53;;
77105;SDS011;66057;54.718;18.426;2023-03-14T04:45:17;6.65;;;3.63;;
77105;SDS011;66057;54.718;18.426;2023-03-14T04:47:43;7.72;;;3.33;;
77105;SDS011;66057;54.718;18.426;2023-03-14T04:50:10;8.57;;;3.25;;
77105;SDS011;66057;54.718;18.426;2023-03-14T04:52:36;7.72;;;3.28;;
77105;SDS011;66057;54.718;18.426;2023-03-14T04:55:02;8.23;;;3.92;;
77105;SDS011;66057;54.718;18.426;2023-03-14T04:57:31;7.28;;;3.50;;
77105;SDS011;66057;54.718;18.426;2023-03-14T04:59:57;5.63;;;3.22;;
77105;SDS011;66057;54.718;18.426;2023-03-14T05:02:23;5.68;;;3.78;;
77105;SDS011;66057;54.718;18.426;2023-03-14T05:04:50;5.90;;;3.75;;
77105;SDS011;66057;54.718;18.426;2023-03-14T05:07:16;6.80;;;3.65;;
77105;SDS011;66057;54.718;18.426;2023-03-14T05:09:42;5.60;;;3.85;;
77105;SDS011;66057;54.718;18.426;2023-03-14T05:12:08;7.93;;;3.58;;
77105;SDS011;66057;54.718;18.426;2023-03-14T05:14:34;7.00;;;3.63;;
77105;SDS011;66057;54.718;18.426;2023-03-14T05:17:00;6.85;;;3.58;;
77105;SDS011;66057;54.718;18.426;2023-03-14T05:19:26;6.45;;;3.70;;
77105;SDS011;66057;54.718;18.426;2023-03-14T05:21:57;8.45;;;4.25;;
77105;SDS011;66057;54.718;18.426;2023-03-14T05:24:24;5.90;;;3.63;;
77105;SDS011;66057;54.718;18.426;2023-03-14T05:26:49;8.98;;;3.95;;
77105;SDS011;66057;54.718;18.426;2023-03-14T05:29:15;8.13;;;3.70;;
77105;SDS011;66057;54.718;18.426;2023-03-14T05:31:41;7.78;;;3.50;;
77105;SDS011;66057;54.718;18.426;2023-03-14T05:34:07;6.30;;;3.58;;
77105;SDS011;66057;54.718;18.426;2023-03-14T05:36:33;5.82;;;2.90;;
77105;SDS011;66057;54.718;18.426;2023-03-14T05:38:59;6.60;;;3.67;;
77105;SDS011;66057;54.718;18.426;2023-03-14T05:41:27;6.40;;;3.08;;
77105;SDS011;66057;54.718;18.426;2023-03-14T05:43:58;6.85;;;3.00;;
77105;SDS011;66057;54.718;18.426;2023-03-14T05:46:27;5.88;;;2.75;;
77105;SDS011;66057;54.718;18.426;2023-03-14T05:48:53;11.50;;;3.40;;
77105;SDS011;66057;54.718;18.426;2023-03-14T05:51:19;6.40;;;3.13;;
77105;SDS011;66057;54.718;18.426;2023-03-14T05:53:45;9.27;;;4.05;;
77105;SDS011;66057;54.718;18.426;2023-03-14T05:56:11;13.75;;;5.25;;
77105;SDS011;66057;54.718;18.426;2023-03-14T05:58:37;13.32;;;4.38;;
77105;SDS011;66057;54.718;18.426;2023-03-14T06:01:04;16.30;;;4.40;;
77105;SDS011;66057;54.718;18.426;2023-03-14T06:03:31;9.27;;;3.28;;
77105;SDS011;66057;54.718;18.426;2023-03-14T06:05:57;7.45;;;3.15;;
77105;SDS011;66057;54.718;18.426;2023-03-14T06:08:24;9.50;;;2.85;;
77105;SDS011;66057;54.718;18.426;2023-03-14T06:10:53;9.90;;;3.92;;
77105;SDS011;66057;54.718;18.426;2023-03-14T06:13:19;4.75;;;2.85;;
77105;SDS011;66057;54.718;18.426;2023-03-14T06:15:48;10.30;;;3.50;;
77105;SDS011;66057;54.718;18.426;2023-03-14T06:20:41;5.72;;;2.50;;
77105;SDS011;66057;54.718;18.426;2023-03-14T06:23:07;4.55;;;2.05;;
77105;SDS011;66057;54.718;18.426;2023-03-14T06:25:34;5.30;;;2.80;;
77105;SDS011;66057;54.718;18.426;2023-03-14T06:28:01;3.45;;;2.40;;
77105;SDS011;66057;54.718;18.426;2023-03-14T06:30:27;3.83;;;2.05;;
77105;SDS011;66057;54.718;18.426;2023-03-14T06:32:54;4.28;;;2.33;;
77105;SDS011;66057;54.718;18.426;2023-03-14T06:35:21;6.78;;;2.88;;
77105;SDS011;66057;54.718;18.426;2023-03-14T06:37:47;4.45;;;2.20;;
77105;SDS011;66057;54.718;18.426;2023-03-14T06:40:13;4.63;;;2.40;;
77105;SDS011;66057;54.718;18.426;2023-03-14T06:42:46;4.63;;;2.05;;
77105;SDS011;66057;54.718;18.426;2023-03-14T06:45:15;3.63;;;2.28;;
77105;SDS011;66057;54.718;18.426;2023-03-14T06:47:44;4.05;;;1.48;;
77105;SDS011;66057;54.718;18.426;2023-03-14T06:50:10;5.53;;;1.70;;
77105;SDS011;66057;54.718;18.426;2023-03-14T06:52:37;2.67;;;1.30;;
77105;SDS011;66057;54.718;18.426;2023-03-14T06:55:06;4.95;;;1.65;;
77105;SDS011;66057;54.718;18.426;2023-03-14T06:57:36;3.25;;;1.48;;
77105;SDS011;66057;54.718;18.426;2023-03-14T07:00:06;2.80;;;1.15;;
77105;SDS011;66057;54.718;18.426;2023-03-14T07:02:32;2.67;;;1.90;;
77105;SDS011;66057;54.718;18.426;2023-03-14T07:04:59;2.17;;;1.20;;
77105;SDS011;66057;54.718;18.426;2023-03-14T07:07:26;2.00;;;1.60;;
77105;SDS011;66057;54.718;18.426;2023-03-14T07:09:52;3.70;;;2.22;;
77105;SDS011;66057;54.718;18.426;2023-03-14T07:12:18;2.13;;;1.20;;
77105;SDS011;66057;54.718;18.426;2023-03-14T07:14:44;4.20;;;1.63;;
77105;SDS011;66057;54.718;18.426;2023-03-14T07:17:11;3.00;;;1.60;;
77105;SDS011;66057;54.718;18.426;2023-03-14T07:19:37;3.63;;;1.88;;
77105;SDS011;66057;54.718;18.426;2023-03-14T07:22:06;2.92;;;1.50;;
77105;SDS011;66057;54.718;18.426;2023-03-14T07:24:32;3.30;;;1.85;;
77105;SDS011;66057;54.718;18.426;2023-03-14T07:26:58;4.65;;;1.52;;
77105;SDS011;66057;54.718;18.426;2023-03-14T07:29:24;3.65;;;1.67;;
77105;SDS011;66057;54.718;18.426;2023-03-14T07:31:50;2.90;;;1.58;;
77105;SDS011;66057;54.718;18.426;2023-03-14T07:34:16;15.45;;;2.85;;
77105;SDS011;66057;54.718;18.426;2023-03-14T07:36:42;2.10;;;1.08;;
77105;SDS011;66057;54.718;18.426;2023-03-14T07:39:07;4.28;;;1.60;;
77105;SDS011;66057;54.718;18.426;2023-03-14T07:41:34;2.97;;;1.30;;
77105;SDS011;66057;54.718;18.426;2023-03-14T07:44:00;4.45;;;1.83;;
77105;SDS011;66057;54.718;18.426;2023-03-14T07:46:26;2.42;;;1.30;;
77105;SDS011;66057;54.718;18.426;2023-03-14T07:48:52;3.05;;;1.58;;
77105;SDS011;66057;54.718;18.426;2023-03-14T07:51:18;3.83;;;1.48;;
77105;SDS011;66057;54.718;18.426;2023-03-14T07:53:45;3.35;;;1.92;;
77105;SDS011;66057;54.718;18.426;2023-03-14T07:56:12;3.33;;;1.67;;
77105;SDS011;66057;54.718;18.426;2023-03-14T07:58:37;4.03;;;1.65;;
77105;SDS011;66057;54.718;18.426;2023-03-14T08:01:04;4.47;;;2.38;;
77105;SDS011;66057;54.718;18.426;2023-03-14T08:03:30;4.60;;;2.05;;
77105;SDS011;66057;54.718;18.426;2023-03-14T08:05:57;4.32;;;2.15;;
77105;SDS011;66057;54.718;18.426;2023-03-14T08:08:29;6.75;;;2.92;;
77105;SDS011;66057;54.718;18.426;2023-03-14T08:10:55;8.68;;;4.00;;
77105;SDS011;66057;54.718;18.426;2023-03-14T08:13:21;7.18;;;3.05;;
77105;SDS011;66057;54.718;18.426;2023-03-14T08:15:49;5.00;;;2.55;;
77105;SDS011;66057;54.718;18.426;2023-03-14T08:18:16;6.38;;;2.58;;
77105;SDS011;66057;54.718;18.426;2023-03-14T08:20:43;4.07;;;2.50;;
77105;SDS011;66057;54.718;18.426;2023-03-14T08:23:08;4.47;;;2.08;;
77105;SDS011;66057;54.718;18.426;2023-03-14T08:25:34;3.15;;;1.88;;
77105;SDS011;66057;54.718;18.426;2023-03-14T08:28:00;4.90;;;2.15;;
77105;SDS011;66057;54.718;18.426;2023-03-14T08:30:26;4.70;;;2.28;;
77105;SDS011;66057;54.718;18.426;2023-03-14T08:32:52;6.20;;;2.63;;
77105;SDS011;66057;54.718;18.426;2023-03-14T08:35:19;3.92;;;1.88;;
77105;SDS011;66057;54.718;18.426;2023-03-14T08:37:45;5.63;;;2.45;;
77105;SDS011;66057;54.718;18.426;2023-03-14T08:40:11;4.18;;;1.95;;
77105;SDS011;66057;54.718;18.426;2023-03-14T08:42:37;3.38;;;1.98;;
77105;SDS011;66057;54.718;18.426;2023-03-14T08:45:06;6.70;;;2.42;;
77105;SDS011;66057;54.718;18.426;2023-03-14T08:47:34;2.97;;;1.77;;
77105;SDS011;66057;54.718;18.426;2023-03-14T08:50:01;3.83;;;1.60;;
77105;SDS011;66057;54.718;18.426;2023-03-14T08:52:29;3.03;;;1.63;;
77105;SDS011;66057;54.718;18.426;2023-03-14T08:54:56;2.13;;;1.13;;
77105;SDS011;66057;54.718;18.426;2023-03-14T08:57:22;2.63;;;2.00;;
77105;SDS011;66057;54.718;18.426;2023-03-14T08:59:56;4.18;;;1.70;;
77105;SDS011;66057;54.718;18.426;2023-03-14T09:02:23;4.10;;;2.28;;
77105;SDS011;66057;54.718;18.426;2023-03-14T09:04:53;2.67;;;1.70;;
77105;SDS011;66057;54.718;18.426;2023-03-14T09:07:19;2.33;;;1.45;;
77105;SDS011;66057;54.718;18.426;2023-03-14T09:09:45;3.47;;;1.67;;
77105;SDS011;66057;54.718;18.426;2023-03-14T09:12:12;4.13;;;2.22;;
77105;SDS011;66057;54.718;18.426;2023-03-14T09:14:38;3.70;;;2.35;;
77105;SDS011;66057;54.718;18.426;2023-03-14T09:17:04;5.93;;;1.85;;
77105;SDS011;66057;54.718;18.426;2023-03-14T09:21:57;2.67;;;2.08;;
77105;SDS011;66057;54.718;18.426;2023-03-14T09:24:23;2.85;;;1.75;;
77105;SDS011;66057;54.718;18.426;2023-03-14T09:26:49;4.00;;;2.22;;
77105;SDS011;66057;54.718;18.426;2023-03-14T09:29:16;3.53;;;2.33;;
77105;SDS011;66057;54.718;18.426;2023-03-14T09:31:41;4.03;;;1.85;;
77105;SDS011;66057;54.718;18.426;2023-03-14T09:34:07;4.65;;;2.28;;
77105;SDS011;66057;54.718;18.426;2023-03-14T09:36:34;4.25;;;1.77;;
77105;SDS011;66057;54.718;18.426;2023-03-14T09:39:00;3.13;;;1.92;;
77105;SDS011;66057;54.718;18.426;2023-03-14T09:41:27;4.55;;;2.42;;
77105;SDS011;66057;54.718;18.426;2023-03-14T09:44:02;3.63;;;2.63;;
77105;SDS011;66057;54.718;18.426;2023-03-14T09:46:30;3.13;;;2.42;;
77105;SDS011;66057;54.718;18.426;2023-03-14T09:49:01;3.38;;;1.90;;
77105;SDS011;66057;54.718;18.426;2023-03-14T09:53:53;3.20;;;2.05;;
77105;SDS011;66057;54.718;18.426;2023-03-14T09:56:21;2.25;;;1.98;;
77105;SDS011;66057;54.718;18.426;2023-03-14T09:58:58;3.00;;;1.92;;
77105;SDS011;66057;54.718;18.426;2023-03-14T10:01:26;3.33;;;2.40;;
77105;SDS011;66057;54.718;18.426;2023-03-14T10:03:55;3.45;;;2.00;;
77105;SDS011;66057;54.718;18.426;2023-03-14T10:06:25;2.65;;;1.70;;
77105;SDS011;66057;54.718;18.426;2023-03-14T10:08:53;2.72;;;1.83;;
77105;SDS011;66057;54.718;18.426;2023-03-14T10:14:06;2.97;;;2.00;;
77105;SDS011;66057;54.718;18.426;2023-03-14T10:16:34;2.30;;;1.70;;
77105;SDS011;66057;54.718;18.426;2023-03-14T10:19:09;3.55;;;2.47;;
77105;SDS011;66057;54.718;18.426;2023-03-14T10:21:52;3.90;;;1.45;;
77105;SDS011;66057;54.718;18.426;2023-03-14T10:24:22;3.55;;;1.95;;
77105;SDS011;66057;54.718;18.426;2023-03-14T10:26:52;5.30;;;1.77;;
77105;SDS011;66057;54.718;18.426;2023-03-14T10:29:26;4.78;;;2.22;;
77105;SDS011;66057;54.718;18.426;2023-03-14T10:34:27;3.08;;;1.95;;
77105;SDS011;66057;54.718;18.426;2023-03-14T10:37:06;3.95;;;2.05;;
77105;SDS011;66057;54.718;18.426;2023-03-14T10:39:35;3.05;;;2.13;;
77105;SDS011;66057;54.718;18.426;2023-03-14T10:42:16;2.97;;;1.75;;
77105;SDS011;66057;54.718;18.426;2023-03-14T10:45:06;3.92;;;2.45;;
77105;SDS011;66057;54.718;18.426;2023-03-14T10:47:57;5.65;;;1.98;;
77105;SDS011;66057;54.718;18.426;2023-03-14T10:50:31;4.22;;;2.28;;
77105;SDS011;66057;54.718;18.426;2023-03-14T10:52:57;4.35;;;1.67;;
77105;SDS011;66057;54.718;18.426;2023-03-14T10:55:43;4.53;;;1.83;;
77105;SDS011;66057;54.718;18.426;2023-03-14T10:58:24;3.20;;;2.30;;
77105;SDS011;66057;54.718;18.426;2023-03-14T11:03:21;3.40;;;1.85;;
77105;SDS011;66057;54.718;18.426;2023-03-14T11:06:11;1.90;;;1.40;;
77105;SDS011;66057;54.718;18.426;2023-03-14T11:08:52;2.50;;;1.83;;
77105;SDS011;66057;54.718;18.426;2023-03-14T11:11:38;2.55;;;1.40;;
77105;SDS011;66057;54.718;18.426;2023-03-14T11:14:20;4.57;;;1.77;;
77105;SDS011;66057;54.718;18.426;2023-03-14T11:22:20;6.35;;;2.50;;
77105;SDS011;66057;54.718;18.426;2023-03-14T11:27:43;2.65;;;1.70;;
77105;SDS011;66057;54.718;18.426;2023-03-14T11:30:21;2.65;;;1.50;;
77105;SDS011;66057;54.718;18.426;2023-03-14T11:33:13;3.28;;;2.05;;
77105;SDS011;66057;54.718;18.426;2023-03-14T11:38:28;3.20;;;2.00;;
77105;SDS011;66057;54.718;18.426;2023-03-14T11:41:00;4.38;;;1.98;;
77105;SDS011;66057;54.718;18.426;2023-03-14T11:46:07;5.50;;;1.92;;
77105;SDS011;66057;54.718;18.426;2023-03-14T11:48:55;3.38;;;1.80;;
77105;SDS011;66057;54.718;18.426;2023-03-14T11:51:36;6.15;;;2.40;;
77105;SDS011;66057;54.718;18.426;2023-03-14T11:56:57;5.22;;;2.70;;
77105;SDS011;66057;54.718;18.426;2023-03-14T12:10:38;5.20;;;1.40;;
77105;SDS011;66057;54.718;18.426;2023-03-14T12:13:11;1.75;;;1.00;;
77105;SDS011;66057;54.718;18.426;2023-03-14T12:15:40;2.55;;;1.17;;
77105;SDS011;66057;54.718;18.426;2023-03-14T12:18:20;2.13;;;0.70;;
77105;SDS011;66057;54.718;18.426;2023-03-14T12:23:55;2.53;;;1.60;;
77105;SDS011;66057;54.718;18.426;2023-03-14T12:26:24;2.78;;;1.20;;
77105;SDS011;66057;54.718;18.426;2023-03-14T12:34:02;2.22;;;1.08;;
77105;SDS011;66057;54.718;18.426;2023-03-14T12:42:21;2.75;;;1.00;;
77105;SDS011;66057;54.718;18.426;2023-03-14T12:50:42;2.00;;;1.05;;
77105;SDS011;66057;54.718;18.426;2023-03-14T12:58:55;1.48;;;0.77;;
77105;SDS011;66057;54.718;18.426;2023-03-14T13:01:26;2.78;;;0.52;;
77105;SDS011;66057;54.718;18.426;2023-03-14T13:12:11;2.13;;;0.50;;
77105;SDS011;66057;54.718;18.426;2023-03-14T13:14:43;3.05;;;0.82;;
77105;SDS011;66057;54.718;18.426;2023-03-14T13:19:39;4.13;;;1.13;;
77105;SDS011;66057;54.718;18.426;2023-03-14T13:22:38;3.22;;;0.60;;
77105;SDS011;66057;54.718;18.426;2023-03-14T13:24:59;2.50;;;0.57;;
77105;SDS011;66057;54.718;18.426;2023-03-14T13:27:29;1.92;;;0.50;;
77105;SDS011;66057;54.718;18.426;2023-03-14T13:29:57;3.30;;;1.05;;
77105;SDS011;66057;54.718;18.426;2023-03-14T13:32:26;2.60;;;0.98;;
77105;SDS011;66057;54.718;18.426;2023-03-14T13:34:57;1.95;;;0.60;;
77105;SDS011;66057;54.718;18.426;2023-03-14T13:37:24;2.75;;;0.75;;
77105;SDS011;66057;54.718;18.426;2023-03-14T13:39:52;2.75;;;0.98;;
77105;SDS011;66057;54.718;18.426;2023-03-14T13:42:28;3.75;;;0.90;;
77105;SDS011;66057;54.718;18.426;2023-03-14T13:44:58;0.85;;;0.40;;
77105;SDS011;66057;54.718;18.426;2023-03-14T13:47:24;4.47;;;1.00;;
77105;SDS011;66057;54.718;18.426;2023-03-14T13:49:52;1.45;;;0.40;;
77105;SDS011;66057;54.718;18.426;2023-03-14T13:55:00;2.72;;;0.80;;
77105;SDS011;66057;54.718;18.426;2023-03-14T13:57:42;4.72;;;0.75;;
77105;SDS011;66057;54.718;18.426;2023-03-14T14:00:17;2.25;;;0.63;;
77105;SDS011;66057;54.718;18.426;2023-03-14T14:02:44;1.88;;;0.68;;
77105;SDS011;66057;54.718;18.426;2023-03-14T14:05:12;3.90;;;0.75;;
77105;SDS011;66057;54.718;18.426;2023-03-14T14:07:38;1.90;;;0.60;;
77105;SDS011;66057;54.718;18.426;2023-03-14T14:10:05;2.30;;;0.70;;
77105;SDS011;66057;54.718;18.426;2023-03-14T14:12:33;2.53;;;0.70;;
77105;SDS011;66057;54.718;18.426;2023-03-14T14:15:16;2.55;;;0.50;;
77105;SDS011;66057;54.718;18.426;2023-03-14T14:17:51;1.23;;;0.45;;
77105;SDS011;66057;54.718;18.426;2023-03-14T14:20:22;0.93;;;0.40;;
77105;SDS011;66057;54.718;18.426;2023-03-14T14:22:57;1.65;;;0.65;;
77105;SDS011;66057;54.718;18.426;2023-03-14T14:25:23;3.45;;;0.65;;
77105;SDS011;66057;54.718;18.426;2023-03-14T14:27:50;1.75;;;0.47;;
77105;SDS011;66057;54.718;18.426;2023-03-14T14:32:42;1.58;;;0.40;;
77105;SDS011;66057;54.718;18.426;2023-03-14T14:37:43;3.75;;;0.50;;
77105;SDS011;66057;54.718;18.426;2023-03-14T14:40:16;7.53;;;5.07;;
77105;SDS011;66057;54.718;18.426;2023-03-14T14:42:46;1.92;;;0.40;;
77105;SDS011;66057;54.718;18.426;2023-03-14T14:45:17;2.13;;;0.50;;
77105;SDS011;66057;54.718;18.426;2023-03-14T14:53:41;2.15;;;0.82;;
77105;SDS011;66057;54.718;18.426;2023-03-14T14:58:45;2.83;;;0.70;;
77105;SDS011;66057;54.718;18.426;2023-03-14T15:01:20;1.92;;;0.90;;
77105;SDS011;66057;54.718;18.426;2023-03-14T15:03:50;2.92;;;1.15;;
77105;SDS011;66057;54.718;18.426;2023-03-14T15:06:19;2.35;;;1.10;;
77105;SDS011;66057;54.718;18.426;2023-03-14T15:08:46;1.75;;;0.90;;
77105;SDS011;66057;54.718;18.426;2023-03-14T15:11:18;2.03;;;0.90;;
77105;SDS011;66057;54.718;18.426;2023-03-14T15:13:48;2.08;;;1.00;;
77105;SDS011;66057;54.718;18.426;2023-03-14T15:16:18;13.13;;;4.75;;
77105;SDS011;66057;54.718;18.426;2023-03-14T15:18:48;7.03;;;2.92;;
77105;SDS011;66057;54.718;18.426;2023-03-14T15:21:19;8.27;;;3.58;;
77105;SDS011;66057;54.718;18.426;2023-03-14T15:23:45;7.50;;;3.10;;
77105;SDS011;66057;54.718;18.426;2023-03-14T15:26:12;5.32;;;2.28;;
77105;SDS011;66057;54.718;18.426;2023-03-14T15:28:40;2.80;;;1.13;;
77105;SDS011;66057;54.718;18.426;2023-03-14T15:31:10;6.68;;;1.77;;
77105;SDS011;66057;54.718;18.426;2023-03-14T15:33:37;5.07;;;1.80;;
77105;SDS011;66057;54.718;18.426;2023-03-14T15:36:03;2.25;;;0.88;;
77105;SDS011;66057;54.718;18.426;2023-03-14T15:38:31;6.20;;;1.20;;
77105;SDS011;66057;54.718;18.426;2023-03-14T15:40:57;2.55;;;0.70;;
77105;SDS011;66057;54.718;18.426;2023-03-14T15:43:26;3.90;;;1.00;;
77105;SDS011;66057;54.718;18.426;2023-03-14T15:45:52;2.35;;;0.50;;
77105;SDS011;66057;54.718;18.426;2023-03-14T15:48:18;3.80;;;1.27;;
77105;SDS011;66057;54.718;18.426;2023-03-14T15:50:47;7.97;;;1.98;;
77105;SDS011;66057;54.718;18.426;2023-03-14T15:53:13;3.90;;;1.35;;
77105;SDS011;66057;54.718;18.426;2023-03-14T15:55:39;4.82;;;2.40;;
77105;SDS011;66057;54.718;18.426;2023-03-14T15:58:05;3.47;;;1.10;;
77105;SDS011;66057;54.718;18.426;2023-03-14T16:00:31;0.90;;;0.45;;
77105;SDS011;66057;54.718;18.426;2023-03-14T16:02:57;2.95;;;1.10;;
77105;SDS011;66057;54.718;18.426;2023-03-14T16:05:23;4.35;;;0.80;;
77105;SDS011;66057;54.718;18.426;2023-03-14T16:07:49;3.13;;;1.02;;
77105;SDS011;66057;54.718;18.426;2023-03-14T16:10:15;2.28;;;1.10;;
77105;SDS011;66057;54.718;18.426;2023-03-14T16:12:41;2.83;;;1.10;;
77105;SDS011;66057;54.718;18.426;2023-03-14T16:15:07;2.25;;;0.88;;
77105;SDS011;66057;54.718;18.426;2023-03-14T16:17:35;2.58;;;0.65;;
77105;SDS011;66057;54.718;18.426;2023-03-14T16:20:03;1.95;;;1.30;;
77105;SDS011;66057;54.718;18.426;2023-03-14T16:22:30;2.17;;;0.70;;
77105;SDS011;66057;54.718;18.426;2023-03-14T16:25:01;3.70;;;1.27;;
77105;SDS011;66057;54.718;18.426;2023-03-14T16:27:29;2.38;;;1.08;;
77105;SDS011;66057;54.718;18.426;2023-03-14T16:29:56;3.28;;;1.20;;
77105;SDS011;66057;54.718;18.426;2023-03-14T16:32:24;1.40;;;0.73;;
77105;SDS011;66057;54.718;18.426;2023-03-14T16:34:51;3.25;;;0.75;;
77105;SDS011;66057;54.718;18.426;2023-03-14T16:37:16;2.75;;;0.70;;